createdAt,value
2023-01-06T00:01:12.859Z,1.40
2023-01-06T00:06:06.817Z,1.20
2023-01-06T00:11:04.629Z,1.40
2023-01-06T00:15:56.598Z,1.37
2023-01-06T00:20:48.624Z,1.10
2023-01-06T00:25:40.628Z,1.70
2023-01-06T00:30:32.587Z,1.53
2023-01-06T00:35:24.589Z,1.30
2023-01-06T00:40:16.674Z,1.40
2023-01-06T00:45:09.085Z,1.37
2023-01-06T00:50:02.800Z,1.70
2023-01-06T00:54:54.889Z,1.40
2023-01-06T00:59:46.905Z,1.63
2023-01-06T01:04:38.921Z,2.03
2023-01-06T01:09:32.053Z,1.77
2023-01-06T01:14:24.108Z,2.10
2023-01-06T01:19:16.829Z,2.27
2023-01-06T01:24:10.509Z,2.43
2023-01-06T01:29:02.568Z,2.20
2023-01-06T01:33:54.554Z,2.17
2023-01-06T01:38:47.048Z,2.30
2023-01-06T01:44:12.492Z,2.40
2023-01-06T01:49:15.300Z,2.17
2023-01-06T01:54:12.726Z,1.80
2023-01-06T01:59:12.075Z,2.40
2023-01-06T02:04:04.790Z,2.50
2023-01-06T02:09:53.221Z,2.37
2023-01-06T02:14:45.427Z,2.10
2023-01-06T02:19:55.672Z,2.60
2023-01-06T02:24:50.678Z,2.27
2023-01-06T02:30:00.809Z,2.50
2023-01-06T02:35:10.531Z,2.30
2023-01-06T02:40:23.287Z,2.40
2023-01-06T02:45:37.076Z,2.40
2023-01-06T02:50:31.943Z,2.23
2023-01-06T02:55:33.531Z,3.03
2023-01-06T03:00:38.035Z,2.53
2023-01-06T03:05:33.111Z,2.70
2023-01-06T03:10:28.668Z,2.63
2023-01-06T03:15:21.589Z,2.70
2023-01-06T03:20:14.661Z,2.40
2023-01-06T03:25:07.992Z,2.80
2023-01-06T03:30:00.956Z,2.67
2023-01-06T03:35:19.828Z,2.50
2023-01-06T03:40:25.074Z,2.30
2023-01-06T03:45:39.627Z,1.83
2023-01-06T03:51:09.223Z,2.33
2023-01-06T03:56:20.791Z,2.17
2023-01-06T04:01:14.583Z,2.23
2023-01-06T04:06:07.353Z,2.87
2023-01-06T04:10:59.375Z,2.00
2023-01-06T04:15:52.251Z,1.97
2023-01-06T04:20:44.296Z,2.07
2023-01-06T04:25:45.022Z,2.10
2023-01-06T04:30:50.467Z,1.40
2023-01-06T04:35:43.662Z,1.73
2023-01-06T04:40:36.137Z,1.87
2023-01-06T04:45:28.115Z,1.70
2023-01-06T04:50:20.149Z,1.60
2023-01-06T04:55:12.295Z,1.80
2023-01-06T05:00:05.506Z,1.77
2023-01-06T05:04:58.761Z,2.03
2023-01-06T05:09:50.793Z,1.80
2023-01-06T05:14:42.697Z,2.13
2023-01-06T05:19:34.650Z,2.60
2023-01-06T05:24:26.607Z,2.60
2023-01-06T05:29:18.579Z,2.43
2023-01-06T05:34:11.120Z,2.20
2023-01-06T05:39:03.389Z,2.03
2023-01-06T05:43:56.929Z,2.70
2023-01-06T05:48:48.992Z,4.30
2023-01-06T05:53:43.931Z,3.33
2023-01-06T05:58:37.115Z,3.00
2023-01-06T06:03:29.445Z,3.23
2023-01-06T06:08:21.457Z,3.40
2023-01-06T06:13:13.508Z,3.40
2023-01-06T06:18:05.491Z,2.83
2023-01-06T06:22:57.537Z,3.77
2023-01-06T06:27:49.495Z,4.03
2023-01-06T06:32:41.440Z,4.27
2023-01-06T06:37:33.542Z,3.90
2023-01-06T06:42:25.559Z,5.10
2023-01-06T06:47:17.643Z,4.47
2023-01-06T06:52:09.571Z,3.83
2023-01-06T06:57:01.557Z,4.37
2023-01-06T07:01:53.641Z,4.10
2023-01-06T07:06:45.700Z,4.33
2023-01-06T07:11:37.761Z,5.30
2023-01-06T07:16:30.869Z,5.43
2023-01-06T07:21:25.206Z,5.10
2023-01-06T07:26:17.305Z,4.57
2023-01-06T07:31:09.342Z,4.70
2023-01-06T07:36:01.350Z,4.90
2023-01-06T07:40:53.427Z,4.97
2023-01-06T07:45:49.044Z,6.13
2023-01-06T07:50:41.070Z,5.50
2023-01-06T07:55:32.990Z,5.43
2023-01-06T08:00:25.166Z,5.93
2023-01-06T08:05:17.172Z,6.30
2023-01-06T08:10:10.596Z,5.87
2023-01-06T08:15:02.939Z,6.23
2023-01-06T08:19:54.976Z,5.80
2023-01-06T08:24:47.027Z,5.87
2023-01-06T08:29:38.953Z,5.97
2023-01-06T08:34:30.930Z,5.90
2023-01-06T08:39:22.819Z,5.87
2023-01-06T08:44:14.997Z,5.40
2023-01-06T08:49:06.967Z,4.70
2023-01-06T08:53:58.911Z,3.93
2023-01-06T08:59:02.246Z,3.73
2023-01-06T09:03:55.068Z,3.70
2023-01-06T09:08:48.675Z,3.20
2023-01-06T09:13:40.977Z,3.87
2023-01-06T09:18:33.005Z,4.07
2023-01-06T09:23:24.992Z,4.10
2023-01-06T09:28:17.227Z,2.90
2023-01-06T09:33:09.337Z,3.80
2023-01-06T09:38:01.388Z,4.70
2023-01-06T09:43:15.524Z,4.03
2023-01-06T09:48:15.350Z,3.90
2023-01-06T09:53:15.702Z,4.07
2023-01-06T09:58:21.935Z,3.70
2023-01-06T10:03:25.513Z,3.93
2023-01-06T10:08:23.346Z,3.80
2023-01-06T10:13:24.194Z,3.77
2023-01-06T10:18:47.039Z,3.40
2023-01-06T10:23:59.350Z,2.53
2023-01-06T10:28:54.285Z,3.30
2023-01-06T10:33:52.773Z,3.70
2023-01-06T10:38:49.771Z,3.10
2023-01-06T10:43:41.842Z,3.23
2023-01-06T10:48:34.716Z,2.70
2023-01-06T10:53:26.673Z,2.60
2023-01-06T10:58:53.975Z,2.63
2023-01-06T11:03:46.028Z,2.60
2023-01-06T11:08:39.451Z,3.10
2023-01-06T11:13:37.134Z,3.30
2023-01-06T11:18:31.976Z,3.00
2023-01-06T11:23:24.267Z,3.17
2023-01-06T11:28:20.955Z,3.40
2023-01-06T11:33:19.147Z,2.80
2023-01-06T11:38:15.295Z,3.80
2023-01-06T11:43:12.290Z,3.87
2023-01-06T11:48:12.371Z,4.37
2023-01-06T11:53:16.488Z,1.70
2023-01-06T11:58:18.551Z,1.13
2023-01-06T12:03:19.812Z,0.63
2023-01-06T12:08:45.676Z,0.30
2023-01-06T12:13:44.893Z,0.30
2023-01-06T12:18:43.426Z,0.30
2023-01-06T12:23:40.215Z,0.30
2023-01-06T12:28:36.000Z,0.23
2023-01-06T12:33:40.609Z,0.50
2023-01-06T12:38:57.293Z,0.60
2023-01-06T12:44:34.515Z,0.20
2023-01-06T12:49:36.777Z,0.40
2023-01-06T12:54:34.570Z,0.40
2023-01-06T12:59:45.382Z,0.50
2023-01-06T13:04:37.326Z,0.30
2023-01-06T13:09:47.766Z,0.30
2023-01-06T13:15:03.681Z,0.30
2023-01-06T13:20:02.662Z,0.40
2023-01-06T13:25:06.342Z,0.20
2023-01-06T13:30:19.080Z,0.30
2023-01-06T13:35:32.146Z,0.70
2023-01-06T13:40:29.701Z,0.60
2023-01-06T13:45:27.564Z,0.40
2023-01-06T13:50:20.873Z,0.87
2023-01-06T13:55:19.089Z,0.70
2023-01-06T14:00:11.049Z,1.13
2023-01-06T14:05:21.167Z,1.30
2023-01-06T14:10:33.660Z,0.70
2023-01-06T14:15:31.904Z,0.50
2023-01-06T14:20:34.173Z,0.30
2023-01-06T14:25:28.631Z,0.60
2023-01-06T14:30:30.751Z,0.60
2023-01-06T14:35:35.611Z,0.70
2023-01-06T14:40:36.789Z,0.37
2023-01-06T14:45:35.882Z,0.40
2023-01-06T14:50:46.692Z,0.40
2023-01-06T14:55:45.147Z,0.33
2023-01-06T15:00:38.286Z,0.60
2023-01-06T15:05:37.097Z,0.60
2023-01-06T15:10:35.396Z,1.50
2023-01-06T15:15:34.195Z,0.67
2023-01-06T15:20:40.026Z,0.60
2023-01-06T15:25:35.579Z,0.80
2023-01-06T15:30:34.694Z,0.73
2023-01-06T15:35:29.726Z,0.80
2023-01-06T15:40:22.790Z,2.50
2023-01-06T15:45:44.583Z,0.97
2023-01-06T15:50:36.825Z,0.93
2023-01-06T15:55:33.250Z,3.87
2023-01-06T16:00:41.408Z,1.70
2023-01-06T16:05:44.512Z,0.70
2023-01-06T16:10:38.798Z,0.50
2023-01-06T16:15:35.035Z,0.50
2023-01-06T16:20:28.397Z,0.50
2023-01-06T16:25:24.455Z,0.80
2023-01-06T16:30:26.199Z,0.50
2023-01-06T16:35:20.516Z,0.67
2023-01-06T16:40:13.881Z,1.70
2023-01-06T16:45:27.809Z,0.90
2023-01-06T16:50:31.086Z,0.83
2023-01-06T16:55:23.970Z,1.43
2023-01-06T17:00:19.772Z,1.00
2023-01-06T17:05:20.998Z,1.37
2023-01-06T17:10:20.098Z,1.20
2023-01-06T17:15:12.753Z,3.53
2023-01-06T17:20:11.973Z,2.10
2023-01-06T17:25:12.577Z,1.93
2023-01-06T17:30:19.867Z,0.70
2023-01-06T17:35:20.938Z,0.50
2023-01-06T17:40:18.538Z,0.60
2023-01-06T17:45:23.554Z,0.60
2023-01-06T17:50:34.275Z,0.90
2023-01-06T17:55:44.398Z,0.83
2023-01-06T18:00:38.965Z,1.00
2023-01-06T18:05:32.648Z,1.17
2023-01-06T18:10:24.552Z,1.47
2023-01-06T18:15:34.023Z,1.63
2023-01-06T18:20:26.128Z,2.80
2023-01-06T18:25:25.854Z,8.43
2023-01-06T18:30:26.783Z,15.33
2023-01-06T18:35:21.692Z,17.40
2023-01-06T18:40:18.060Z,25.40
2023-01-06T18:45:12.419Z,32.70
2023-01-06T18:50:23.178Z,56.13
2023-01-06T18:55:34.231Z,31.83
2023-01-06T19:00:46.038Z,3.23
2023-01-06T19:05:37.997Z,1.80
2023-01-06T19:10:30.157Z,1.40
2023-01-06T19:15:25.587Z,0.93
2023-01-06T19:20:23.388Z,0.97
2023-01-06T19:25:24.413Z,1.10
2023-01-06T19:30:33.690Z,1.30
2023-01-06T19:35:29.450Z,1.37
2023-01-06T19:40:28.090Z,3.67
2023-01-06T19:45:38.471Z,4.80
2023-01-06T19:50:30.440Z,6.13
2023-01-06T19:55:30.680Z,4.07
2023-01-06T20:00:46.887Z,4.43
2023-01-06T20:05:38.832Z,4.30
2023-01-06T20:10:30.818Z,4.77
2023-01-06T20:15:22.833Z,5.80
2023-01-06T20:20:15.556Z,6.60
2023-01-06T20:25:07.920Z,7.43
2023-01-06T20:29:59.891Z,5.77
2023-01-06T20:34:51.868Z,4.00
2023-01-06T20:39:43.876Z,4.17
2023-01-06T20:44:36.069Z,11.40
2023-01-06T20:49:28.163Z,4.33
2023-01-06T20:54:20.148Z,3.37
2023-01-06T20:59:12.421Z,3.67
2023-01-06T21:04:04.609Z,2.13
2023-01-06T21:08:56.511Z,1.00
2023-01-06T21:13:52.072Z,1.47
2023-01-06T21:18:44.076Z,1.30
2023-01-06T21:23:36.069Z,2.17
2023-01-06T21:28:28.055Z,1.57
2023-01-06T21:33:21.656Z,2.40
2023-01-06T21:38:13.827Z,1.50
2023-01-06T21:43:08.924Z,1.30
2023-01-06T21:48:00.878Z,1.30
2023-01-06T21:52:53.227Z,1.70
2023-01-06T21:57:45.342Z,1.93
2023-01-06T22:02:37.359Z,1.33
2023-01-06T22:07:29.842Z,1.70
2023-01-06T22:12:22.079Z,2.23
2023-01-06T22:17:14.227Z,1.93
2023-01-06T22:22:06.943Z,1.53
2023-01-06T22:26:58.875Z,4.00
2023-01-06T22:31:50.926Z,1.00
2023-01-06T22:36:42.908Z,1.27
2023-01-06T22:41:34.977Z,1.10
2023-01-06T22:46:27.516Z,1.27
2023-01-06T22:51:19.541Z,0.87
2023-01-06T22:56:12.344Z,1.60
2023-01-06T23:01:06.576Z,1.30
2023-01-06T23:06:05.554Z,1.10
2023-01-06T23:11:06.565Z,0.80
2023-01-06T23:16:00.485Z,0.90
2023-01-06T23:21:14.290Z,1.57
2023-01-06T23:26:16.180Z,1.90
2023-01-06T23:31:11.033Z,1.47
2023-01-06T23:36:03.288Z,1.27
2023-01-06T23:41:04.840Z,1.40
2023-01-06T23:46:05.357Z,1.10
2023-01-06T23:50:58.095Z,1.20
2023-01-06T23:56:00.381Z,1.30
